sensor_id;sensor_type;location;lat;lon;timestamp;pressure;altitude;pressure_sealevel;temperature;humidity
23589;BME280;11972;48.078;11.876;2023-03-03T00:00:42;95429.06;;;-1.37;100.00
23589;BME280;11972;48.078;11.876;2023-03-03T00:04:43;95429.41;;;-1.41;100.00
23589;BME280;11972;48.078;11.876;2023-03-03T00:08:43;95426.00;;;-1.42;100.00
23589;BME280;11972;48.078;11.876;2023-03-03T00:12:46;95431.44;;;-1.34;100.00
23589;BME280;11972;48.078;11.876;2023-03-03T00:16:47;95428.16;;;-1.36;100.00
23589;BME280;11972;48.078;11.876;2023-03-03T00:20:52;95427.66;;;-1.41;100.00
23589;BME280;11972;48.078;11.876;2023-03-03T00:24:53;95431.06;;;-1.40;100.00
23589;BME280;11972;48.078;11.876;2023-03-03T00:28:54;95426.13;;;-1.43;100.00
23589;BME280;11972;48.078;11.876;2023-03-03T00:32:56;95423.97;;;-1.50;100.00
23589;BME280;11972;48.078;11.876;2023-03-03T00:36:57;95420.75;;;-1.53;100.00
23589;BME280;11972;48.078;11.876;2023-03-03T00:40:57;95422.16;;;-1.60;100.00
23589;BME280;11972;48.078;11.876;2023-03-03T00:44:58;95426.94;;;-1.67;100.00
23589;BME280;11972;48.078;11.876;2023-03-03T00:48:59;95420.44;;;-1.72;100.00
23589;BME280;11972;48.078;11.876;2023-03-03T00:53:06;95424.56;;;-1.70;100.00
23589;BME280;11972;48.078;11.876;2023-03-03T00:57:10;95419.38;;;-1.70;100.00
23589;BME280;11972;48.078;11.876;2023-03-03T01:01:11;95430.31;;;-1.54;100.00
23589;BME280;11972;48.078;11.876;2023-03-03T01:05:13;95426.34;;;-1.46;100.00
23589;BME280;11972;48.078;11.876;2023-03-03T01:09:14;95433.38;;;-1.48;100.00
23589;BME280;11972;48.078;11.876;2023-03-03T01:13:14;95434.81;;;-1.44;100.00
23589;BME280;11972;48.078;11.876;2023-03-03T01:17:15;95443.75;;;-1.48;100.00
23589;BME280;11972;48.078;11.876;2023-03-03T01:21:15;95442.03;;;-1.61;100.00
23589;BME280;11972;48.078;11.876;2023-03-03T01:25:15;95429.75;;;-1.70;100.00
23589;BME280;11972;48.078;11.876;2023-03-03T01:29:16;95428.25;;;-1.85;100.00
23589;BME280;11972;48.078;11.876;2023-03-03T01:33:16;95434.81;;;-1.92;100.00
23589;BME280;11972;48.078;11.876;2023-03-03T01:37:17;95424.88;;;-1.98;100.00
23589;BME280;11972;48.078;11.876;2023-03-03T01:41:18;95424.59;;;-2.07;100.00
23589;BME280;11972;48.078;11.876;2023-03-03T01:45:23;95419.03;;;-2.13;100.00
23589;BME280;11972;48.078;11.876;2023-03-03T01:49:40;95419.44;;;-2.19;100.00
23589;BME280;11972;48.078;11.876;2023-03-03T01:53:47;95413.66;;;-2.23;100.00
23589;BME280;11972;48.078;11.876;2023-03-03T01:58:00;95408.72;;;-2.26;100.00
23589;BME280;11972;48.078;11.876;2023-03-03T02:02:03;95423.50;;;-2.28;100.00
23589;BME280;11972;48.078;11.876;2023-03-03T02:06:07;95415.03;;;-2.30;100.00
23589;BME280;11972;48.078;11.876;2023-03-03T02:10:14;95417.81;;;-2.33;100.00
23589;BME280;11972;48.078;11.876;2023-03-03T02:14:14;95418.97;;;-2.37;100.00
23589;BME280;11972;48.078;11.876;2023-03-03T02:18:18;95415.88;;;-2.42;100.00
23589;BME280;11972;48.078;11.876;2023-03-03T02:22:22;95412.56;;;-2.44;100.00
23589;BME280;11972;48.078;11.876;2023-03-03T02:26:30;95415.25;;;-2.46;100.00
23589;BME280;11972;48.078;11.876;2023-03-03T02:30:36;95421.25;;;-2.45;100.00
23589;BME280;11972;48.078;11.876;2023-03-03T02:34:49;95420.63;;;-2.49;100.00
23589;BME280;11972;48.078;11.876;2023-03-03T02:39:19;95411.56;;;-2.55;100.00
23589;BME280;11972;48.078;11.876;2023-03-03T02:43:21;95416.94;;;-2.58;100.00
23589;BME280;11972;48.078;11.876;2023-03-03T02:47:22;95410.81;;;-2.57;100.00
23589;BME280;11972;48.078;11.876;2023-03-03T02:51:22;95418.56;;;-2.57;100.00
23589;BME280;11972;48.078;11.876;2023-03-03T02:55:23;95414.34;;;-2.58;100.00
23589;BME280;11972;48.078;11.876;2023-03-03T02:59:23;95415.47;;;-2.62;100.00
23589;BME280;11972;48.078;11.876;2023-03-03T03:03:24;95408.97;;;-2.67;100.00
23589;BME280;11972;48.078;11.876;2023-03-03T03:07:24;95405.97;;;-2.74;100.00
23589;BME280;11972;48.078;11.876;2023-03-03T03:11:25;95408.56;;;-2.74;100.00
23589;BME280;11972;48.078;11.876;2023-03-03T03:15:25;95399.56;;;-2.68;100.00
23589;BME280;11972;48.078;11.876;2023-03-03T03:19:25;95404.41;;;-2.64;100.00
23589;BME280;11972;48.078;11.876;2023-03-03T03:23:26;95410.13;;;-2.59;100.00
23589;BME280;11972;48.078;11.876;2023-03-03T03:27:26;95408.22;;;-2.57;100.00
23589;BME280;11972;48.078;11.876;2023-03-03T03:31:27;95413.00;;;-2.51;100.00
23589;BME280;11972;48.078;11.876;2023-03-03T03:35:27;95412.56;;;-2.44;100.00
23589;BME280;11972;48.078;11.876;2023-03-03T03:39:27;95420.41;;;-2.33;100.00
23589;BME280;11972;48.078;11.876;2023-03-03T03:43:28;95424.09;;;-2.12;100.00
23589;BME280;11972;48.078;11.876;2023-03-03T03:47:28;95415.75;;;-1.91;100.00
23589;BME280;11972;48.078;11.876;2023-03-03T03:51:28;95416.72;;;-1.81;100.00
23589;BME280;11972;48.078;11.876;2023-03-03T03:55:30;95411.28;;;-1.65;100.00
23589;BME280;11972;48.078;11.876;2023-03-03T03:59:30;95410.31;;;-1.40;100.00
23589;BME280;11972;48.078;11.876;2023-03-03T04:03:31;95415.38;;;-1.15;100.00
23589;BME280;11972;48.078;11.876;2023-03-03T04:07:31;95411.28;;;-0.95;100.00
23589;BME280;11972;48.078;11.876;2023-03-03T04:11:31;95411.44;;;-0.85;100.00
23589;BME280;11972;48.078;11.876;2023-03-03T04:15:32;95411.13;;;-0.69;100.00
23589;BME280;11972;48.078;11.876;2023-03-03T04:19:32;95411.00;;;-0.57;100.00
23589;BME280;11972;48.078;11.876;2023-03-03T04:23:32;95414.44;;;-0.45;100.00
23589;BME280;11972;48.078;11.876;2023-03-03T04:27:34;95420.19;;;-0.30;100.00
23589;BME280;11972;48.078;11.876;2023-03-03T04:31:34;95429.63;;;-0.29;100.00
23589;BME280;11972;48.078;11.876;2023-03-03T04:35:35;95429.19;;;-0.12;100.00
23589;BME280;11972;48.078;11.876;2023-03-03T04:39:35;95431.50;;;0.03;100.00
23589;BME280;11972;48.078;11.876;2023-03-03T04:43:35;95425.22;;;0.16;100.00
23589;BME280;11972;48.078;11.876;2023-03-03T04:47:36;95421.78;;;0.27;100.00
23589;BME280;11972;48.078;11.876;2023-03-03T04:51:36;95425.56;;;0.34;100.00
23589;BME280;11972;48.078;11.876;2023-03-03T04:55:37;95414.66;;;0.40;100.00
23589;BME280;11972;48.078;11.876;2023-03-03T04:59:37;95409.22;;;0.43;100.00
23589;BME280;11972;48.078;11.876;2023-03-03T05:03:38;95411.81;;;0.43;100.00
23589;BME280;11972;48.078;11.876;2023-03-03T05:07:38;95419.75;;;0.42;100.00
23589;BME280;11972;48.078;11.876;2023-03-03T05:11:39;95426.34;;;0.46;100.00
23589;BME280;11972;48.078;11.876;2023-03-03T05:15:39;95421.47;;;0.53;100.00
23589;BME280;11972;48.078;11.876;2023-03-03T05:19:40;95416.75;;;0.58;100.00
23589;BME280;11972;48.078;11.876;2023-03-03T05:23:40;95419.47;;;0.56;100.00
23589;BME280;11972;48.078;11.876;2023-03-03T05:27:40;95421.00;;;0.59;100.00
23589;BME280;11972;48.078;11.876;2023-03-03T05:31:41;95428.66;;;0.60;100.00
23589;BME280;11972;48.078;11.876;2023-03-03T05:35:42;95426.25;;;0.68;100.00
23589;BME280;11972;48.078;11.876;2023-03-03T05:39:42;95428.50;;;0.73;100.00
23589;BME280;11972;48.078;11.876;2023-03-03T05:43:43;95434.66;;;0.72;100.00
23589;BME280;11972;48.078;11.876;2023-03-03T05:47:44;95431.66;;;0.77;100.00
23589;BME280;11972;48.078;11.876;2023-03-03T05:51:44;95438.41;;;0.79;100.00
23589;BME280;11972;48.078;11.876;2023-03-03T05:55:44;95440.88;;;0.81;100.00
23589;BME280;11972;48.078;11.876;2023-03-03T05:59:45;95448.28;;;0.85;100.00
23589;BME280;11972;48.078;11.876;2023-03-03T06:03:45;95452.31;;;0.89;100.00
23589;BME280;11972;48.078;11.876;2023-03-03T06:07:45;95453.84;;;0.92;100.00
23589;BME280;11972;48.078;11.876;2023-03-03T06:11:46;95450.63;;;0.99;100.00
23589;BME280;11972;48.078;11.876;2023-03-03T06:15:46;95447.41;;;1.07;100.00
23589;BME280;11972;48.078;11.876;2023-03-03T06:19:46;95448.91;;;1.10;100.00
23589;BME280;11972;48.078;11.876;2023-03-03T06:23:47;95457.28;;;1.13;100.00
23589;BME280;11972;48.078;11.876;2023-03-03T06:27:47;95459.75;;;1.15;100.00
23589;BME280;11972;48.078;11.876;2023-03-03T06:31:48;95464.84;;;1.16;100.00
23589;BME280;11972;48.078;11.876;2023-03-03T06:35:52;95470.03;;;1.16;100.00
23589;BME280;11972;48.078;11.876;2023-03-03T06:39:53;95471.31;;;1.22;100.00
23589;BME280;11972;48.078;11.876;2023-03-03T06:43:53;95474.34;;;1.27;100.00
23589;BME280;11972;48.078;11.876;2023-03-03T06:47:54;95472.22;;;1.32;100.00
23589;BME280;11972;48.078;11.876;2023-03-03T06:51:54;95481.03;;;1.41;100.00
23589;BME280;11972;48.078;11.876;2023-03-03T06:55:57;95480.41;;;1.48;100.00
23589;BME280;11972;48.078;11.876;2023-03-03T07:04:18;95477.84;;;1.58;100.00
23589;BME280;11972;48.078;11.876;2023-03-03T07:08:22;95489.50;;;1.64;100.00
23589;BME280;11972;48.078;11.876;2023-03-03T07:12:28;95491.44;;;1.62;100.00
23589;BME280;11972;48.078;11.876;2023-03-03T07:16:29;95502.53;;;1.64;100.00
23589;BME280;11972;48.078;11.876;2023-03-03T07:20:35;95501.06;;;1.71;100.00
23589;BME280;11972;48.078;11.876;2023-03-03T07:24:37;95508.06;;;1.70;100.00
23589;BME280;11972;48.078;11.876;2023-03-03T07:28:43;95511.44;;;1.82;100.00
23589;BME280;11972;48.078;11.876;2023-03-03T07:32:46;95509.00;;;1.90;100.00
23589;BME280;11972;48.078;11.876;2023-03-03T07:36:56;95525.88;;;1.96;100.00
23589;BME280;11972;48.078;11.876;2023-03-03T07:41:00;95532.66;;;2.08;100.00
23589;BME280;11972;48.078;11.876;2023-03-03T07:45:02;95531.69;;;2.09;100.00
23589;BME280;11972;48.078;11.876;2023-03-03T07:49:33;95537.31;;;2.05;100.00
23589;BME280;11972;48.078;11.876;2023-03-03T07:53:34;95546.44;;;2.20;100.00
23589;BME280;11972;48.078;11.876;2023-03-03T07:57:37;95542.53;;;2.35;100.00
23589;BME280;11972;48.078;11.876;2023-03-03T08:01:41;95539.97;;;2.55;100.00
23589;BME280;11972;48.078;11.876;2023-03-03T08:05:43;95546.38;;;2.81;100.00
23589;BME280;11972;48.078;11.876;2023-03-03T08:10:25;95546.69;;;3.07;100.00
23589;BME280;11972;48.078;11.876;2023-03-03T08:14:29;95534.88;;;3.32;100.00
23589;BME280;11972;48.078;11.876;2023-03-03T08:22:35;95542.84;;;3.60;100.00
23589;BME280;11972;48.078;11.876;2023-03-03T08:26:36;95533.75;;;3.73;100.00
23589;BME280;11972;48.078;11.876;2023-03-03T08:30:36;95536.91;;;3.77;100.00
23589;BME280;11972;48.078;11.876;2023-03-03T08:34:37;95530.56;;;3.89;100.00
23589;BME280;11972;48.078;11.876;2023-03-03T08:38:37;95532.00;;;4.11;100.00
23589;BME280;11972;48.078;11.876;2023-03-03T08:42:38;95543.41;;;4.30;100.00
23589;BME280;11972;48.078;11.876;2023-03-03T08:46:38;95543.75;;;4.44;100.00
23589;BME280;11972;48.078;11.876;2023-03-03T08:50:39;95545.59;;;4.62;100.00
23589;BME280;11972;48.078;11.876;2023-03-03T08:54:40;95543.31;;;4.77;100.00
23589;BME280;11972;48.078;11.876;2023-03-03T08:58:40;95539.09;;;4.93;100.00
23589;BME280;11972;48.078;11.876;2023-03-03T09:02:47;95546.13;;;4.93;100.00
23589;BME280;11972;48.078;11.876;2023-03-03T09:06:48;95550.81;;;4.89;100.00
23589;BME280;11972;48.078;11.876;2023-03-03T09:10:48;95549.91;;;4.81;100.00
23589;BME280;11972;48.078;11.876;2023-03-03T09:14:50;95549.06;;;4.90;100.00
23589;BME280;11972;48.078;11.876;2023-03-03T09:18:50;95549.28;;;4.96;100.00
23589;BME280;11972;48.078;11.876;2023-03-03T09:22:50;95547.03;;;5.02;100.00
23589;BME280;11972;48.078;11.876;2023-03-03T09:26:51;95551.09;;;5.14;100.00
23589;BME280;11972;48.078;11.876;2023-03-03T09:30:59;95554.19;;;5.27;100.00
23589;BME280;11972;48.078;11.876;2023-03-03T09:35:37;95555.28;;;5.42;100.00
23589;BME280;11972;48.078;11.876;2023-03-03T09:39:38;95561.88;;;5.46;100.00
23589;BME280;11972;48.078;11.876;2023-03-03T09:48:13;95570.34;;;5.76;100.00
23589;BME280;11972;48.078;11.876;2023-03-03T09:57:01;95576.69;;;5.91;100.00
23589;BME280;11972;48.078;11.876;2023-03-03T10:05:57;95581.72;;;6.03;100.00
23589;BME280;11972;48.078;11.876;2023-03-03T10:19:00;95580.41;;;6.51;100.00
23589;BME280;11972;48.078;11.876;2023-03-03T10:31:55;95582.78;;;6.70;100.00
23589;BME280;11972;48.078;11.876;2023-03-03T10:40:20;95589.41;;;6.82;100.00
23589;BME280;11972;48.078;11.876;2023-03-03T10:49:10;95587.28;;;7.36;100.00
23589;BME280;11972;48.078;11.876;2023-03-03T10:54:02;95581.09;;;7.54;100.00
23589;BME280;11972;48.078;11.876;2023-03-03T10:58:56;95581.75;;;7.64;100.00
23589;BME280;11972;48.078;11.876;2023-03-03T11:02:59;95575.38;;;7.66;100.00
23589;BME280;11972;48.078;11.876;2023-03-03T11:07:19;95578.63;;;7.68;100.00
23589;BME280;11972;48.078;11.876;2023-03-03T11:16:12;95587.22;;;7.87;100.00
23589;BME280;11972;48.078;11.876;2023-03-03T11:37:22;95585.72;;;8.25;100.00
23589;BME280;11972;48.078;11.876;2023-03-03T11:41:38;95583.78;;;8.43;100.00
23589;BME280;11972;48.078;11.876;2023-03-03T11:45:44;95572.34;;;8.59;100.00
23589;BME280;11972;48.078;11.876;2023-03-03T11:49:56;95564.38;;;8.84;100.00
23589;BME280;11972;48.078;11.876;2023-03-03T11:54:08;95548.81;;;9.13;100.00
23589;BME280;11972;48.078;11.876;2023-03-03T11:58:21;95548.66;;;9.07;100.00
23589;BME280;11972;48.078;11.876;2023-03-03T12:11:20;95541.31;;;8.14;100.00
23589;BME280;11972;48.078;11.876;2023-03-03T12:15:53;95544.63;;;8.00;100.00
23589;BME280;11972;48.078;11.876;2023-03-03T12:20:12;95539.69;;;7.96;100.00
23589;BME280;11972;48.078;11.876;2023-03-03T12:28:30;95537.34;;;8.34;100.00
23589;BME280;11972;48.078;11.876;2023-03-03T12:46:21;95533.94;;;9.66;100.00
23589;BME280;11972;48.078;11.876;2023-03-03T12:50:38;95536.78;;;9.88;100.00
23589;BME280;11972;48.078;11.876;2023-03-03T12:59:04;95524.34;;;9.97;100.00
23589;BME280;11972;48.078;11.876;2023-03-03T13:03:28;95533.09;;;10.12;100.00
23589;BME280;11972;48.078;11.876;2023-03-03T13:07:47;95524.19;;;10.13;100.00
23589;BME280;11972;48.078;11.876;2023-03-03T13:12:08;95533.19;;;9.81;100.00
23589;BME280;11972;48.078;11.876;2023-03-03T13:16:14;95528.16;;;9.17;100.00
23589;BME280;11972;48.078;11.876;2023-03-03T13:20:33;95531.78;;;8.37;100.00
23589;BME280;11972;48.078;11.876;2023-03-03T13:24:58;95532.50;;;7.66;100.00
23589;BME280;11972;48.078;11.876;2023-03-03T13:33:34;95530.09;;;7.06;100.00
23589;BME280;11972;48.078;11.876;2023-03-03T13:37:41;95535.34;;;7.14;100.00
23589;BME280;11972;48.078;11.876;2023-03-03T13:41:48;95533.09;;;7.27;100.00
23589;BME280;11972;48.078;11.876;2023-03-03T13:54:50;95516.38;;;7.69;100.00
23589;BME280;11972;48.078;11.876;2023-03-03T13:58:59;95509.47;;;7.60;100.00
23589;BME280;11972;48.078;11.876;2023-03-03T14:03:25;95504.38;;;7.58;100.00
23589;BME280;11972;48.078;11.876;2023-03-03T14:11:52;95494.94;;;8.37;100.00
23589;BME280;11972;48.078;11.876;2023-03-03T14:16:08;95493.59;;;8.33;100.00
23589;BME280;11972;48.078;11.876;2023-03-03T14:20:15;95483.13;;;8.73;100.00
23589;BME280;11972;48.078;11.876;2023-03-03T14:24:20;95480.84;;;9.01;100.00
23589;BME280;11972;48.078;11.876;2023-03-03T14:28:22;95487.88;;;9.08;100.00
23589;BME280;11972;48.078;11.876;2023-03-03T14:32:25;95480.50;;;9.04;100.00
23589;BME280;11972;48.078;11.876;2023-03-03T14:36:31;95483.41;;;9.09;100.00
23589;BME280;11972;48.078;11.876;2023-03-03T14:40:36;95475.34;;;9.10;100.00
23589;BME280;11972;48.078;11.876;2023-03-03T14:48:55;95479.09;;;9.85;100.00
23589;BME280;11972;48.078;11.876;2023-03-03T14:53:10;95473.88;;;10.44;100.00
23589;BME280;11972;48.078;11.876;2023-03-03T15:01:31;95477.09;;;11.41;100.00
23589;BME280;11972;48.078;11.876;2023-03-03T15:05:32;95476.31;;;11.26;100.00
23589;BME280;11972;48.078;11.876;2023-03-03T15:09:36;95474.81;;;11.02;100.00
23589;BME280;11972;48.078;11.876;2023-03-03T15:13:40;95477.44;;;10.36;100.00
23589;BME280;11972;48.078;11.876;2023-03-03T15:17:42;95473.84;;;10.14;100.00
23589;BME280;11972;48.078;11.876;2023-03-03T15:22:06;95481.19;;;9.89;100.00
23589;BME280;11972;48.078;11.876;2023-03-03T15:26:34;95488.47;;;9.41;100.00
23589;BME280;11972;48.078;11.876;2023-03-03T15:30:50;95486.66;;;9.19;100.00
23589;BME280;11972;48.078;11.876;2023-03-03T15:34:56;95490.53;;;8.77;100.00
23589;BME280;11972;48.078;11.876;2023-03-03T15:43:44;95492.28;;;8.29;100.00
23589;BME280;11972;48.078;11.876;2023-03-03T15:52:35;95488.59;;;7.91;100.00
23589;BME280;11972;48.078;11.876;2023-03-03T15:56:48;95497.63;;;7.64;100.00
23589;BME280;11972;48.078;11.876;2023-03-03T16:01:00;95500.59;;;7.53;100.00
23589;BME280;11972;48.078;11.876;2023-03-03T16:05:38;95501.56;;;7.43;100.00
23589;BME280;11972;48.078;11.876;2023-03-03T16:18:35;95507.13;;;7.24;100.00
23589;BME280;11972;48.078;11.876;2023-03-03T16:27:15;95516.47;;;7.10;100.00
23589;BME280;11972;48.078;11.876;2023-03-03T16:36:03;95522.84;;;6.91;100.00
23589;BME280;11972;48.078;11.876;2023-03-03T16:40:19;95529.00;;;6.82;100.00
23589;BME280;11972;48.078;11.876;2023-03-03T16:44:36;95529.34;;;6.79;100.00
23589;BME280;11972;48.078;11.876;2023-03-03T16:48:47;95530.16;;;6.71;100.00
23589;BME280;11972;48.078;11.876;2023-03-03T17:01:58;95537.00;;;6.30;100.00
23589;BME280;11972;48.078;11.876;2023-03-03T17:06:09;95551.94;;;6.12;100.00
23589;BME280;11972;48.078;11.876;2023-03-03T17:14:37;95550.28;;;5.67;100.00
23589;BME280;11972;48.078;11.876;2023-03-03T17:27:36;95573.56;;;4.89;100.00
23589;BME280;11972;48.078;11.876;2023-03-03T17:40:42;95590.38;;;4.02;100.00
23589;BME280;11972;48.078;11.876;2023-03-03T17:44:55;95586.81;;;3.74;100.00
23589;BME280;11972;48.078;11.876;2023-03-03T17:57:49;95609.56;;;2.94;100.00
23589;BME280;11972;48.078;11.876;2023-03-03T18:06:16;95612.00;;;2.46;100.00
23589;BME280;11972;48.078;11.876;2023-03-03T18:14:46;95630.41;;;2.03;100.00
23589;BME280;11972;48.078;11.876;2023-03-03T18:19:21;95620.81;;;1.82;100.00
23589;BME280;11972;48.078;11.876;2023-03-03T18:23:40;95627.97;;;1.69;100.00
23589;BME280;11972;48.078;11.876;2023-03-03T18:27:42;95637.03;;;1.54;100.00
23589;BME280;11972;48.078;11.876;2023-03-03T18:35:44;95640.41;;;1.33;100.00
23589;BME280;11972;48.078;11.876;2023-03-03T18:39:47;95642.94;;;1.23;100.00
23589;BME280;11972;48.078;11.876;2023-03-03T18:43:52;95645.19;;;1.17;100.00
23589;BME280;11972;48.078;11.876;2023-03-03T18:52:25;95646.38;;;1.02;100.00
23589;BME280;11972;48.078;11.876;2023-03-03T19:00:50;95644.16;;;0.86;100.00
23589;BME280;11972;48.078;11.876;2023-03-03T19:09:05;95650.81;;;0.79;100.00
23589;BME280;11972;48.078;11.876;2023-03-03T19:13:35;95660.59;;;0.75;100.00
23589;BME280;11972;48.078;11.876;2023-03-03T19:21:39;95661.28;;;0.66;100.00
23589;BME280;11972;48.078;11.876;2023-03-03T19:25:42;95671.34;;;0.59;100.00
23589;BME280;11972;48.078;11.876;2023-03-03T19:29:57;95668.41;;;0.64;100.00
23589;BME280;11972;48.078;11.876;2023-03-03T19:34:07;95682.56;;;0.60;100.00
23589;BME280;11972;48.078;11.876;2023-03-03T19:46:48;95675.47;;;0.39;100.00
23589;BME280;11972;48.078;11.876;2023-03-03T19:51:19;95676.03;;;0.32;100.00
23589;BME280;11972;48.078;11.876;2023-03-03T20:09:00;95679.72;;;0.29;100.00
23589;BME280;11972;48.078;11.876;2023-03-03T20:13:07;95679.00;;;0.27;100.00
23589;BME280;11972;48.078;11.876;2023-03-03T20:17:34;95691.53;;;0.33;100.00
23589;BME280;11972;48.078;11.876;2023-03-03T20:26:23;95681.59;;;0.27;100.00
23589;BME280;11972;48.078;11.876;2023-03-03T20:38:55;95690.78;;;0.20;100.00
23589;BME280;11972;48.078;11.876;2023-03-03T20:52:00;95694.41;;;0.06;100.00
23589;BME280;11972;48.078;11.876;2023-03-03T20:56:38;95692.75;;;0.05;100.00
23589;BME280;11972;48.078;11.876;2023-03-03T21:00:39;95703.25;;;0.04;100.00
23589;BME280;11972;48.078;11.876;2023-03-03T21:04:43;95700.16;;;-0.02;100.00
23589;BME280;11972;48.078;11.876;2023-03-03T21:12:47;95705.00;;;0.03;100.00
23589;BME280;11972;48.078;11.876;2023-03-03T21:16:49;95705.25;;;0.00;100.00
23589;BME280;11972;48.078;11.876;2023-03-03T21:20:50;95709.59;;;-0.01;100.00
23589;BME280;11972;48.078;11.876;2023-03-03T21:29:00;95706.66;;;-0.07;100.00
23589;BME280;11972;48.078;11.876;2023-03-03T21:33:00;95703.22;;;-0.08;100.00
23589;BME280;11972;48.078;11.876;2023-03-03T21:37:08;95698.25;;;-0.11;100.00
23589;BME280;11972;48.078;11.876;2023-03-03T21:41:09;95700.97;;;-0.12;100.00
23589;BME280;11972;48.078;11.876;2023-03-03T21:45:14;95708.19;;;-0.05;100.00
23589;BME280;11972;48.078;11.876;2023-03-03T21:49:15;95711.28;;;0.01;100.00
23589;BME280;11972;48.078;11.876;2023-03-03T21:53:15;95706.09;;;0.01;100.00
23589;BME280;11972;48.078;11.876;2023-03-03T21:57:16;95712.22;;;-0.01;100.00
23589;BME280;11972;48.078;11.876;2023-03-03T22:01:16;95708.22;;;0.07;100.00
23589;BME280;11972;48.078;11.876;2023-03-03T22:05:16;95706.66;;;0.04;100.00
23589;BME280;11972;48.078;11.876;2023-03-03T22:09:17;95709.78;;;0.09;100.00
23589;BME280;11972;48.078;11.876;2023-03-03T22:13:18;95697.88;;;0.18;100.00
23589;BME280;11972;48.078;11.876;2023-03-03T22:17:19;95699.75;;;0.16;100.00
23589;BME280;11972;48.078;11.876;2023-03-03T22:21:19;95704.47;;;0.11;100.00
23589;BME280;11972;48.078;11.876;2023-03-03T22:25:20;95711.03;;;0.04;100.00
23589;BME280;11972;48.078;11.876;2023-03-03T22:29:20;95706.31;;;-0.03;100.00
23589;BME280;11972;48.078;11.876;2023-03-03T22:33:21;95707.47;;;-0.07;100.00
23589;BME280;11972;48.078;11.876;2023-03-03T22:37:22;95714.06;;;-0.14;100.00
23589;BME280;11972;48.078;11.876;2023-03-03T22:41:22;95713.22;;;-0.14;100.00
23589;BME280;11972;48.078;11.876;2023-03-03T22:45:22;95719.03;;;-0.11;100.00
23589;BME280;11972;48.078;11.876;2023-03-03T22:49:23;95713.84;;;-0.11;100.00
23589;BME280;11972;48.078;11.876;2023-03-03T22:53:24;95707.81;;;-0.11;100.00
23589;BME280;11972;48.078;11.876;2023-03-03T22:57:24;95721.13;;;-0.16;100.00
23589;BME280;11972;48.078;11.876;2023-03-03T23:01:25;95715.00;;;-0.15;100.00
23589;BME280;11972;48.078;11.876;2023-03-03T23:05:25;95725.88;;;-0.10;100.00
23589;BME280;11972;48.078;11.876;2023-03-03T23:09:25;95711.50;;;-0.03;100.00
23589;BME280;11972;48.078;11.876;2023-03-03T23:13:26;95715.25;;;-0.07;100.00
23589;BME280;11972;48.078;11.876;2023-03-03T23:17:26;95715.94;;;-0.16;100.00
23589;BME280;11972;48.078;11.876;2023-03-03T23:21:26;95714.34;;;-0.30;100.00
23589;BME280;11972;48.078;11.876;2023-03-03T23:25:27;95715.00;;;-0.39;100.00
23589;BME280;11972;48.078;11.876;2023-03-03T23:29:28;95710.84;;;-0.41;100.00
23589;BME280;11972;48.078;11.876;2023-03-03T23:33:29;95707.84;;;-0.35;100.00
23589;BME280;11972;48.078;11.876;2023-03-03T23:37:29;95713.50;;;-0.30;100.00
23589;BME280;11972;48.078;11.876;2023-03-03T23:41:30;95704.19;;;-0.33;100.00
23589;BME280;11972;48.078;11.876;2023-03-03T23:45:30;95718.16;;;-0.46;100.00
23589;BME280;11972;48.078;11.876;2023-03-03T23:49:31;95710.53;;;-0.61;100.00
23589;BME280;11972;48.078;11.876;2023-03-03T23:53:31;95707.75;;;-0.70;100.00
23589;BME280;11972;48.078;11.876;2023-03-03T23:57:32;95710.78;;;-0.77;100.00
